createdAt,value
2022-10-25T00:00:44.477Z,93.70
2022-10-25T00:03:04.225Z,93.81
2022-10-25T00:05:21.457Z,93.65
2022-10-25T00:07:40.004Z,94.13
2022-10-25T00:09:56.924Z,94.25
2022-10-25T00:12:13.969Z,94.07
2022-10-25T00:14:32.210Z,93.77
2022-10-25T00:16:49.797Z,94.01
2022-10-25T00:19:06.882Z,93.37
2022-10-25T00:21:23.965Z,94.35
2022-10-25T00:23:41.221Z,94.24
2022-10-25T00:25:58.553Z,94.39
2022-10-25T00:28:15.594Z,93.95
2022-10-25T00:30:32.927Z,94.46
2022-10-25T00:32:49.969Z,94.07
2022-10-25T00:35:07.239Z,94.67
2022-10-25T00:37:24.513Z,94.58
2022-10-25T00:39:41.747Z,94.19
2022-10-25T00:41:58.749Z,94.75
2022-10-25T00:44:16.017Z,94.50
2022-10-25T00:46:32.977Z,95.00
2022-10-25T00:48:50.218Z,95.10
2022-10-25T00:51:07.114Z,94.81
2022-10-25T00:53:24.438Z,94.95
2022-10-25T00:55:41.681Z,95.01
2022-10-25T00:57:59.579Z,94.52
2022-10-25T01:00:16.538Z,95.63
2022-10-25T01:02:34.420Z,94.92
2022-10-25T01:04:51.581Z,94.96
2022-10-25T01:07:09.784Z,94.66
2022-10-25T01:09:29.717Z,95.08
2022-10-25T01:11:47.008Z,95.26
2022-10-25T01:14:04.330Z,95.42
2022-10-25T01:16:21.681Z,95.48
2022-10-25T01:18:38.984Z,95.60
2022-10-25T01:20:55.982Z,95.63
2022-10-25T01:23:13.279Z,95.51
2022-10-25T01:25:30.208Z,96.13
2022-10-25T01:27:47.286Z,95.85
2022-10-25T01:30:06.526Z,95.71
2022-10-25T01:32:23.803Z,95.75
2022-10-25T01:34:41.113Z,95.73
2022-10-25T01:36:58.195Z,95.73
2022-10-25T01:39:15.461Z,95.99
2022-10-25T01:41:32.543Z,95.87
2022-10-25T01:43:49.795Z,96.04
2022-10-25T01:46:06.786Z,95.84
2022-10-25T01:48:24.053Z,96.30
2022-10-25T01:50:41.161Z,96.16
2022-10-25T01:52:58.095Z,96.21
2022-10-25T01:55:15.201Z,96.00
2022-10-25T01:57:32.165Z,95.96
2022-10-25T01:59:49.416Z,96.32
2022-10-25T02:02:06.569Z,95.83
2022-10-25T02:04:23.574Z,96.16
2022-10-25T02:06:41.178Z,95.92
2022-10-25T02:08:59.165Z,95.67
2022-10-25T02:11:16.450Z,95.83
2022-10-25T02:13:33.744Z,96.55
2022-10-25T02:15:50.996Z,95.98
2022-10-25T02:18:08.021Z,96.22
2022-10-25T02:20:25.360Z,96.10
2022-10-25T02:22:42.386Z,96.52
2022-10-25T02:25:00.565Z,96.52
2022-10-25T02:27:17.854Z,96.70
2022-10-25T02:29:34.753Z,96.66
2022-10-25T02:31:58.991Z,96.75
2022-10-25T02:34:15.956Z,96.91
2022-10-25T02:36:33.251Z,96.93
2022-10-25T02:38:50.321Z,97.51
2022-10-25T02:41:07.580Z,96.78
2022-10-25T02:43:24.688Z,96.75
2022-10-25T02:45:42.440Z,96.68
2022-10-25T02:47:59.643Z,96.52
2022-10-25T02:50:16.765Z,97.55
2022-10-25T02:52:33.791Z,97.39
2022-10-25T02:54:51.044Z,97.19
2022-10-25T02:57:08.116Z,97.71
2022-10-25T02:59:25.425Z,97.81
2022-10-25T03:01:42.572Z,97.32
2022-10-25T03:03:59.882Z,97.47
2022-10-25T03:06:17.186Z,97.96
2022-10-25T03:08:34.531Z,97.77
2022-10-25T03:10:51.613Z,97.42
2022-10-25T03:13:08.686Z,97.84
2022-10-25T03:15:26.734Z,97.76
2022-10-25T03:17:44.171Z,97.67
2022-10-25T03:20:01.602Z,97.29
2022-10-25T03:22:18.621Z,97.65
2022-10-25T03:24:35.852Z,97.85
2022-10-25T03:26:54.112Z,97.50
2022-10-25T03:29:11.434Z,97.83
2022-10-25T03:31:30.327Z,97.62
2022-10-25T03:33:47.634Z,97.96
2022-10-25T03:36:06.852Z,97.62
2022-10-25T03:38:23.777Z,97.68
2022-10-25T03:40:40.808Z,98.02
2022-10-25T03:42:57.847Z,97.89
2022-10-25T03:45:14.777Z,98.05
2022-10-25T03:47:31.740Z,97.85
2022-10-25T03:49:48.808Z,97.76
2022-10-25T03:52:07.847Z,97.76
2022-10-25T03:54:28.309Z,97.64
2022-10-25T03:56:47.577Z,97.59
2022-10-25T03:59:04.642Z,97.76
2022-10-25T04:01:21.990Z,97.64
2022-10-25T04:03:39.134Z,97.56
2022-10-25T04:05:56.365Z,96.80
2022-10-25T04:08:14.314Z,97.07
2022-10-25T04:10:31.338Z,97.31
2022-10-25T04:12:49.256Z,97.26
2022-10-25T04:15:06.616Z,97.30
2022-10-25T04:17:23.672Z,96.40
2022-10-25T04:19:40.577Z,97.59
2022-10-25T04:21:57.707Z,97.09
2022-10-25T04:24:15.818Z,97.63
2022-10-25T04:26:34.163Z,97.52
2022-10-25T04:28:51.510Z,97.61
2022-10-25T04:31:09.842Z,97.76
2022-10-25T04:33:26.896Z,97.35
2022-10-25T04:35:44.317Z,97.58
2022-10-25T04:38:01.344Z,98.05
2022-10-25T04:40:22.517Z,97.70
2022-10-25T04:42:42.113Z,98.13
2022-10-25T04:44:59.457Z,97.72
2022-10-25T04:47:16.702Z,98.00
2022-10-25T04:49:34.230Z,97.96
2022-10-25T04:54:08.537Z,97.44
2022-10-25T04:56:25.830Z,98.64
2022-10-25T04:58:45.195Z,98.22
2022-10-25T05:01:02.563Z,97.45
2022-10-25T05:03:19.896Z,97.73
2022-10-25T05:05:36.999Z,98.12
2022-10-25T05:07:54.425Z,97.79
2022-10-25T05:10:11.447Z,98.32
2022-10-25T05:12:28.530Z,98.00
2022-10-25T05:14:46.016Z,98.86
2022-10-25T05:17:03.378Z,98.60
2022-10-25T05:19:20.332Z,98.18
2022-10-25T05:21:38.395Z,98.32
2022-10-25T05:24:00.567Z,98.48
2022-10-25T05:26:19.621Z,99.35
2022-10-25T05:28:36.939Z,98.31
2022-10-25T05:30:54.381Z,98.17
2022-10-25T05:33:11.726Z,98.17
2022-10-25T05:35:29.582Z,99.31
2022-10-25T05:37:46.857Z,99.28
2022-10-25T05:40:06.092Z,98.39
2022-10-25T05:42:23.317Z,99.51
2022-10-25T05:44:41.656Z,98.47
2022-10-25T05:46:58.647Z,98.96
2022-10-25T05:49:15.935Z,99.03
2022-10-25T05:51:35.068Z,98.28
2022-10-25T05:53:53.060Z,99.72
2022-10-25T05:56:11.269Z,98.58
2022-10-25T05:58:29.558Z,100.00
2022-10-25T06:00:46.611Z,98.79
2022-10-25T06:03:05.256Z,98.68
2022-10-25T06:05:22.499Z,99.99
2022-10-25T06:07:40.519Z,99.24
2022-10-25T06:10:00.170Z,99.12
2022-10-25T06:12:17.543Z,99.56
2022-10-25T06:14:35.897Z,99.91
2022-10-25T06:16:52.894Z,99.01
2022-10-25T06:19:09.943Z,100.00
2022-10-25T06:21:27.182Z,100.00
2022-10-25T06:23:46.816Z,99.19
2022-10-25T06:26:04.073Z,100.00
2022-10-25T06:28:22.042Z,99.60
2022-10-25T06:30:39.156Z,100.00
2022-10-25T06:32:56.148Z,99.39
2022-10-25T06:35:13.459Z,100.00
2022-10-25T06:37:30.836Z,99.30
2022-10-25T06:39:48.014Z,100.00
2022-10-25T06:42:05.230Z,100.00
2022-10-25T06:44:26.577Z,100.00
2022-10-25T06:47:15.238Z,100.00
2022-10-25T06:49:20.507Z,100.00
2022-10-25T06:51:37.738Z,100.00
2022-10-25T06:53:55.121Z,100.00
2022-10-25T06:56:20.625Z,100.00
2022-10-25T06:58:38.652Z,100.00
2022-10-25T07:00:55.860Z,100.00
2022-10-25T07:03:12.905Z,100.00
2022-10-25T07:05:30.949Z,100.00
2022-10-25T07:07:48.365Z,100.00
2022-10-25T07:10:05.629Z,99.95
2022-10-25T07:12:22.660Z,100.00
2022-10-25T07:14:39.685Z,100.00
2022-10-25T07:17:00.616Z,100.00
2022-10-25T07:19:17.876Z,100.00
2022-10-25T07:21:34.900Z,100.00
2022-10-25T07:23:54.560Z,100.00
2022-10-25T07:26:11.652Z,100.00
2022-10-25T07:28:28.875Z,100.00
2022-10-25T07:30:46.173Z,99.86
2022-10-25T07:33:03.207Z,99.91
2022-10-25T07:35:20.196Z,99.75
2022-10-25T07:37:37.439Z,100.00
2022-10-25T07:39:55.162Z,100.00
2022-10-25T07:42:12.147Z,99.86
2022-10-25T07:44:29.194Z,100.00
2022-10-25T07:46:46.552Z,100.00
2022-10-25T07:49:03.577Z,99.71
2022-10-25T07:51:20.917Z,99.85
2022-10-25T07:53:37.892Z,100.00
2022-10-25T07:55:54.947Z,100.00
2022-10-25T07:58:11.958Z,99.81
2022-10-25T08:00:28.950Z,99.85
2022-10-25T08:02:46.229Z,98.74
2022-10-25T08:05:04.537Z,97.42
2022-10-25T08:07:21.806Z,98.66
2022-10-25T08:09:39.029Z,98.46
2022-10-25T08:11:57.409Z,98.27
2022-10-25T08:14:14.633Z,97.25
2022-10-25T08:16:31.983Z,96.99
2022-10-25T08:18:48.891Z,97.55
2022-10-25T08:21:06.128Z,94.92
2022-10-25T08:23:24.069Z,95.63
2022-10-25T08:25:42.443Z,95.75
2022-10-25T08:27:59.504Z,95.10
2022-10-25T08:30:16.566Z,94.92
2022-10-25T08:32:33.863Z,91.41
2022-10-25T08:34:52.309Z,91.52
2022-10-25T08:37:10.915Z,91.53
2022-10-25T08:39:27.939Z,90.24
2022-10-25T08:41:45.209Z,90.40
2022-10-25T08:44:02.221Z,89.89
2022-10-25T08:46:19.587Z,89.06
2022-10-25T08:48:38.487Z,87.96
2022-10-25T08:50:55.510Z,88.06
2022-10-25T08:53:13.787Z,87.45
2022-10-25T08:55:30.788Z,86.22
2022-10-25T08:57:48.638Z,86.17
2022-10-25T09:00:05.814Z,86.42
2022-10-25T09:02:22.965Z,84.89
2022-10-25T09:04:40.128Z,85.05
2022-10-25T09:06:58.184Z,84.86
2022-10-25T09:09:15.256Z,85.03
2022-10-25T09:11:32.548Z,82.08
2022-10-25T09:13:49.468Z,83.07
2022-10-25T09:16:06.718Z,82.63
2022-10-25T09:18:23.976Z,83.30
2022-10-25T09:20:41.238Z,82.05
2022-10-25T09:22:58.534Z,81.93
2022-10-25T09:25:15.373Z,82.15
2022-10-25T09:27:32.621Z,81.62
2022-10-25T09:29:50.091Z,81.18
2022-10-25T09:32:07.134Z,81.33
2022-10-25T09:34:24.076Z,79.24
2022-10-25T09:36:40.938Z,79.54
2022-10-25T09:38:58.267Z,77.55
2022-10-25T09:41:18.067Z,78.29
2022-10-25T09:43:35.155Z,78.66
2022-10-25T09:45:54.459Z,76.79
2022-10-25T09:48:11.434Z,77.66
2022-10-25T09:50:29.295Z,77.00
2022-10-25T09:52:46.383Z,77.79
2022-10-25T09:55:04.899Z,78.60
2022-10-25T09:57:21.911Z,78.99
2022-10-25T09:59:42.576Z,79.32
2022-10-25T10:01:59.989Z,80.42
2022-10-25T10:04:17.384Z,81.28
2022-10-25T10:06:34.641Z,80.40
2022-10-25T10:08:52.646Z,79.93
2022-10-25T10:11:09.946Z,80.42
2022-10-25T10:13:26.942Z,80.55
2022-10-25T10:15:44.280Z,80.16
2022-10-25T10:18:01.718Z,80.44
2022-10-25T10:20:18.993Z,80.52
2022-10-25T10:22:36.161Z,80.09
2022-10-25T10:24:54.146Z,79.30
2022-10-25T10:27:11.433Z,79.63
2022-10-25T10:29:28.735Z,79.85
2022-10-25T10:31:45.661Z,80.67
2022-10-25T10:34:03.586Z,81.11
2022-10-25T10:36:21.821Z,81.38
2022-10-25T10:38:39.832Z,81.03
2022-10-25T10:40:58.166Z,81.06
2022-10-25T10:43:15.572Z,80.99
2022-10-25T10:45:32.884Z,81.73
2022-10-25T10:47:49.914Z,80.92
2022-10-25T10:50:07.228Z,81.10
2022-10-25T10:54:46.878Z,80.04
2022-10-25T10:57:03.880Z,80.80
2022-10-25T10:59:21.146Z,80.41
2022-10-25T11:01:38.130Z,80.23
2022-10-25T11:03:59.912Z,79.28
2022-10-25T11:06:17.649Z,78.81
2022-10-25T11:08:34.959Z,78.57
2022-10-25T11:10:52.002Z,79.62
2022-10-25T11:13:10.020Z,79.08
2022-10-25T11:15:27.049Z,79.19
2022-10-25T11:17:44.254Z,78.99
2022-10-25T11:20:01.624Z,77.66
2022-10-25T11:22:18.878Z,77.78
2022-10-25T11:24:35.893Z,79.17
2022-10-25T11:26:53.225Z,78.26
2022-10-25T11:29:10.484Z,78.13
2022-10-25T11:31:27.513Z,75.82
2022-10-25T11:33:44.438Z,75.62
2022-10-25T11:36:02.507Z,75.37
2022-10-25T11:38:19.745Z,75.20
2022-10-25T11:40:36.810Z,72.83
2022-10-25T11:42:54.042Z,74.26
2022-10-25T11:45:14.342Z,73.28
2022-10-25T11:47:31.603Z,73.40
2022-10-25T11:49:53.499Z,73.93
2022-10-25T11:54:31.003Z,74.78
2022-10-25T11:56:47.933Z,73.00
2022-10-25T11:59:05.150Z,74.77
2022-10-25T12:01:22.194Z,73.98
2022-10-25T12:03:39.585Z,73.48
2022-10-25T12:05:56.612Z,74.99
2022-10-25T12:08:16.759Z,72.62
2022-10-25T12:10:34.102Z,75.35
2022-10-25T12:12:52.094Z,75.30
2022-10-25T12:15:09.109Z,74.54
2022-10-25T12:17:27.069Z,74.39
2022-10-25T12:19:44.397Z,72.51
2022-10-25T12:22:02.767Z,73.82
2022-10-25T12:24:20.025Z,73.31
2022-10-25T12:26:39.413Z,70.12
2022-10-25T12:28:56.442Z,71.50
2022-10-25T12:31:13.697Z,72.13
2022-10-25T12:33:30.942Z,71.50
2022-10-25T12:35:48.189Z,70.60
2022-10-25T12:38:10.088Z,72.04
2022-10-25T12:40:27.361Z,71.84
2022-10-25T12:42:44.522Z,72.40
2022-10-25T12:45:02.427Z,68.61
2022-10-25T12:47:20.850Z,68.98
2022-10-25T12:49:39.562Z,68.17
2022-10-25T12:51:57.517Z,69.21
2022-10-25T12:54:14.796Z,68.98
2022-10-25T12:56:33.462Z,68.80
2022-10-25T12:58:50.479Z,70.42
2022-10-25T13:01:07.403Z,69.71
2022-10-25T13:03:24.554Z,69.42
2022-10-25T13:05:41.830Z,68.51
2022-10-25T13:07:58.829Z,67.89
2022-10-25T13:10:16.168Z,68.45
2022-10-25T13:12:33.499Z,68.62
2022-10-25T13:14:51.480Z,66.51
2022-10-25T13:17:08.820Z,68.64
2022-10-25T13:19:42.796Z,67.24
2022-10-25T13:22:03.614Z,67.24
2022-10-25T13:24:21.893Z,68.02
2022-10-25T13:26:38.968Z,67.16
2022-10-25T13:28:56.246Z,68.64
2022-10-25T13:31:13.211Z,69.11
2022-10-25T13:33:30.212Z,66.75
2022-10-25T13:35:48.219Z,67.41
2022-10-25T13:38:05.525Z,66.52
2022-10-25T13:40:23.417Z,66.82
2022-10-25T13:42:41.303Z,67.68
2022-10-25T13:44:58.328Z,67.84
2022-10-25T13:47:16.634Z,66.51
2022-10-25T13:49:33.634Z,67.41
2022-10-25T13:51:50.968Z,68.05
2022-10-25T13:54:11.681Z,68.19
2022-10-25T13:56:30.234Z,70.51
2022-10-25T13:58:49.384Z,70.63
2022-10-25T14:01:06.695Z,70.73
2022-10-25T14:03:25.028Z,71.56
2022-10-25T14:05:43.120Z,71.48
2022-10-25T14:08:00.163Z,71.16
2022-10-25T14:10:17.189Z,70.86
2022-10-25T14:12:35.365Z,69.71
2022-10-25T14:14:52.382Z,71.44
2022-10-25T14:17:10.640Z,69.71
2022-10-25T14:19:27.898Z,70.50
2022-10-25T14:21:46.946Z,69.99
2022-10-25T14:24:04.376Z,72.70
2022-10-25T14:26:21.397Z,72.95
2022-10-25T14:28:38.616Z,71.12
2022-10-25T14:30:56.259Z,71.06
2022-10-25T14:33:16.589Z,69.89
2022-10-25T14:35:33.581Z,69.47
2022-10-25T14:37:50.938Z,68.32
2022-10-25T14:42:27.507Z,68.44
2022-10-25T14:44:44.668Z,69.46
2022-10-25T14:47:03.128Z,67.07
2022-10-25T14:49:20.155Z,68.35
2022-10-25T14:51:37.392Z,69.80
2022-10-25T14:53:55.580Z,68.09
2022-10-25T14:56:13.893Z,69.55
2022-10-25T14:58:32.108Z,69.28
2022-10-25T15:00:49.264Z,69.42
2022-10-25T15:03:06.686Z,68.18
2022-10-25T15:05:25.132Z,68.15
2022-10-25T15:07:43.155Z,69.40
2022-10-25T15:10:03.336Z,67.91
2022-10-25T15:12:21.111Z,67.81
2022-10-25T15:14:39.014Z,67.77
2022-10-25T15:16:56.268Z,68.64
2022-10-25T15:19:16.822Z,68.51
2022-10-25T15:21:36.637Z,69.04
2022-10-25T15:23:54.589Z,68.83
2022-10-25T15:26:11.675Z,68.27
2022-10-25T15:28:28.955Z,69.11
2022-10-25T15:30:46.019Z,71.41
2022-10-25T15:33:03.342Z,73.50
2022-10-25T15:35:20.698Z,74.05
2022-10-25T15:37:38.011Z,74.03
2022-10-25T15:39:55.400Z,74.30
2022-10-25T15:42:14.529Z,75.81
2022-10-25T15:44:32.815Z,76.46
2022-10-25T15:46:50.498Z,76.62
2022-10-25T15:49:07.816Z,77.74
2022-10-25T15:51:27.460Z,77.65
2022-10-25T15:53:48.880Z,78.57
2022-10-25T15:56:06.101Z,79.12
2022-10-25T15:58:23.316Z,79.16
2022-10-25T16:00:41.803Z,80.32
2022-10-25T16:02:59.150Z,80.29
2022-10-25T16:05:16.199Z,81.10
2022-10-25T16:07:35.428Z,81.20
2022-10-25T16:09:52.707Z,82.26
2022-10-25T16:12:10.032Z,81.91
2022-10-25T16:14:27.077Z,82.37
2022-10-25T16:16:44.006Z,82.89
2022-10-25T16:19:03.653Z,81.68
2022-10-25T16:21:21.255Z,82.11
2022-10-25T16:23:38.485Z,82.95
2022-10-25T16:25:55.445Z,83.88
2022-10-25T16:28:13.836Z,82.17
2022-10-25T16:30:31.803Z,83.79
2022-10-25T16:32:49.326Z,84.56
2022-10-25T16:35:06.778Z,83.39
2022-10-25T16:37:23.715Z,82.87
2022-10-25T16:39:40.779Z,83.36
2022-10-25T16:41:58.080Z,85.36
2022-10-25T16:44:14.979Z,83.57
2022-10-25T16:46:31.908Z,84.38
2022-10-25T16:48:48.903Z,84.90
2022-10-25T16:51:12.996Z,84.89
2022-10-25T16:53:30.212Z,86.05
2022-10-25T16:55:47.919Z,85.74
2022-10-25T16:58:04.886Z,84.58
2022-10-25T17:00:23.100Z,86.51
2022-10-25T17:02:42.142Z,86.79
2022-10-25T17:04:59.324Z,85.62
2022-10-25T17:07:16.580Z,86.35
2022-10-25T17:09:33.597Z,87.12
2022-10-25T17:11:50.612Z,86.30
2022-10-25T17:14:08.023Z,87.24
2022-10-25T17:16:24.998Z,86.46
2022-10-25T17:18:42.268Z,87.79
2022-10-25T17:20:59.275Z,87.87
2022-10-25T17:23:16.324Z,86.88
2022-10-25T17:25:33.346Z,87.97
2022-10-25T17:27:50.875Z,87.80
2022-10-25T17:30:08.427Z,86.72
2022-10-25T17:32:26.052Z,87.55
2022-10-25T17:34:43.116Z,87.88
2022-10-25T17:37:00.454Z,88.09
2022-10-25T17:39:18.153Z,87.63
2022-10-25T17:41:37.533Z,87.90
2022-10-25T17:43:56.796Z,88.31
2022-10-25T17:46:14.050Z,88.81
2022-10-25T17:48:31.059Z,88.70
2022-10-25T17:50:48.089Z,88.43
2022-10-25T17:53:06.040Z,88.77
2022-10-25T17:55:24.022Z,89.00
2022-10-25T17:57:41.258Z,88.50
2022-10-25T17:59:58.520Z,88.86
2022-10-25T18:02:16.619Z,89.14
2022-10-25T18:04:52.959Z,89.21
2022-10-25T18:07:10.880Z,88.76
2022-10-25T18:09:27.901Z,88.55
2022-10-25T18:11:44.946Z,89.00
2022-10-25T18:14:01.958Z,89.03
2022-10-25T18:16:19.016Z,89.14
2022-10-25T18:18:36.015Z,88.90
2022-10-25T18:20:53.521Z,89.14
2022-10-25T18:23:10.751Z,89.24
2022-10-25T18:25:27.751Z,89.36
2022-10-25T18:27:45.930Z,89.77
2022-10-25T18:30:03.415Z,90.24
2022-10-25T18:32:20.645Z,89.65
2022-10-25T18:34:37.581Z,89.43
2022-10-25T18:36:54.625Z,89.68
2022-10-25T18:39:11.611Z,89.27
2022-10-25T18:41:28.619Z,89.78
2022-10-25T18:43:45.770Z,89.37
2022-10-25T18:46:02.789Z,89.51
2022-10-25T18:48:19.703Z,89.78
2022-10-25T18:50:39.178Z,90.25
2022-10-25T18:52:58.703Z,89.80
2022-10-25T18:57:38.563Z,90.29
2022-10-25T18:59:55.600Z,90.24
2022-10-25T19:02:12.538Z,89.89
2022-10-25T19:04:29.547Z,90.04
2022-10-25T19:06:46.820Z,90.20
2022-10-25T19:09:03.802Z,89.83
2022-10-25T19:11:20.849Z,90.19
2022-10-25T19:13:38.119Z,90.84
2022-10-25T19:15:55.084Z,90.22
2022-10-25T19:18:12.092Z,90.20
2022-10-25T19:20:29.267Z,90.53
2022-10-25T19:22:46.178Z,91.36
2022-10-25T19:25:03.107Z,91.08
2022-10-25T19:27:20.344Z,90.32
2022-10-25T19:29:38.594Z,90.93
2022-10-25T19:31:55.651Z,90.14
2022-10-25T19:34:13.611Z,90.57
2022-10-25T19:36:30.907Z,90.86
2022-10-25T19:38:47.830Z,90.31
2022-10-25T19:41:05.078Z,91.16
2022-10-25T19:43:22.343Z,90.84
2022-10-25T19:45:39.364Z,91.66
2022-10-25T19:47:56.276Z,91.65
2022-10-25T19:50:13.594Z,90.52
2022-10-25T19:52:30.851Z,90.63
2022-10-25T19:54:47.864Z,90.83
2022-10-25T19:57:07.043Z,91.28
2022-10-25T19:59:24.268Z,90.95
2022-10-25T20:01:41.409Z,90.75
2022-10-25T20:03:59.446Z,91.05
2022-10-25T20:06:18.763Z,90.52
2022-10-25T20:08:41.356Z,90.39
2022-10-25T20:10:58.364Z,91.25
2022-10-25T20:13:16.576Z,91.54
2022-10-25T20:15:33.781Z,90.71
2022-10-25T20:17:51.225Z,90.70
2022-10-25T20:20:08.277Z,90.98
2022-10-25T20:22:26.882Z,90.90
2022-10-25T20:24:46.252Z,91.04
2022-10-25T20:27:03.338Z,91.51
2022-10-25T20:29:21.403Z,92.15
2022-10-25T20:31:38.911Z,91.29
2022-10-25T20:33:55.885Z,91.18
2022-10-25T20:36:13.933Z,90.96
2022-10-25T20:38:30.930Z,90.71
2022-10-25T20:40:47.970Z,90.70
2022-10-25T20:43:05.213Z,90.88
2022-10-25T20:45:22.602Z,90.88
2022-10-25T20:47:39.624Z,91.14
2022-10-25T20:49:56.876Z,91.55
2022-10-25T20:52:13.716Z,91.34
2022-10-25T20:54:30.986Z,92.02
2022-10-25T20:56:48.356Z,91.59
2022-10-25T20:59:05.402Z,92.78
2022-10-25T21:01:22.783Z,92.41
2022-10-25T21:03:40.251Z,91.46
2022-10-25T21:05:58.636Z,91.49
2022-10-25T21:08:16.904Z,91.87
2022-10-25T21:10:34.177Z,92.62
2022-10-25T21:12:51.206Z,91.84
2022-10-25T21:15:11.808Z,92.21
2022-10-25T21:17:29.296Z,91.32
2022-10-25T21:19:47.276Z,92.87
2022-10-25T21:22:04.511Z,92.73
2022-10-25T21:24:21.507Z,92.11
2022-10-25T21:26:38.824Z,92.71
2022-10-25T21:28:55.816Z,92.02
2022-10-25T21:31:13.702Z,92.00
2022-10-25T21:33:30.902Z,91.81
2022-10-25T21:35:48.138Z,91.99
2022-10-25T21:38:05.057Z,91.68
2022-10-25T21:40:22.071Z,92.14
2022-10-25T21:42:39.983Z,92.62
2022-10-25T21:44:57.237Z,92.82
2022-10-25T21:47:15.495Z,91.84
2022-10-25T21:49:33.414Z,91.87
2022-10-25T21:51:51.420Z,92.08
2022-10-25T21:54:08.498Z,92.55
2022-10-25T21:56:26.450Z,92.06
2022-10-25T21:58:43.801Z,92.36
2022-10-25T22:01:01.719Z,93.36
2022-10-25T22:03:19.137Z,92.93
2022-10-25T22:05:36.824Z,92.47
2022-10-25T22:07:53.946Z,92.09
2022-10-25T22:10:11.071Z,92.44
2022-10-25T22:12:28.139Z,93.23
2022-10-25T22:14:45.539Z,93.40
2022-10-25T22:17:03.845Z,92.39
2022-10-25T22:21:38.568Z,92.94
2022-10-25T22:23:56.907Z,92.97
2022-10-25T22:26:13.937Z,93.18
2022-10-25T22:28:30.980Z,92.91
2022-10-25T22:30:48.065Z,93.91
2022-10-25T22:33:05.465Z,92.49
2022-10-25T22:35:24.616Z,92.70
2022-10-25T22:37:42.969Z,92.56
2022-10-25T22:40:01.770Z,93.04
2022-10-25T22:42:20.839Z,92.62
2022-10-25T22:44:39.263Z,93.09
2022-10-25T22:46:56.334Z,92.83
2022-10-25T22:49:13.354Z,93.67
2022-10-25T22:51:30.370Z,93.76
2022-10-25T22:53:47.677Z,93.26
2022-10-25T22:56:04.893Z,93.63
2022-10-25T22:58:22.263Z,93.71
2022-10-25T23:00:39.316Z,92.93
2022-10-25T23:02:56.392Z,92.51
2022-10-25T23:05:13.393Z,93.25
2022-10-25T23:07:30.497Z,93.64
2022-10-25T23:09:47.471Z,93.62
2022-10-25T23:12:04.377Z,93.38
2022-10-25T23:14:21.402Z,93.27
2022-10-25T23:16:39.693Z,92.94
2022-10-25T23:18:56.911Z,93.60
2022-10-25T23:21:13.984Z,94.27
2022-10-25T23:23:31.263Z,94.13
2022-10-25T23:25:48.206Z,94.06
2022-10-25T23:28:05.280Z,92.86
2022-10-25T23:30:22.583Z,93.94
2022-10-25T23:32:39.896Z,93.72
2022-10-25T23:34:57.985Z,94.10
2022-10-25T23:37:15.020Z,93.78
2022-10-25T23:39:32.324Z,93.53
2022-10-25T23:41:49.298Z,93.73
2022-10-25T23:44:06.321Z,94.05
2022-10-25T23:46:24.602Z,94.15
2022-10-25T23:48:41.836Z,94.46
2022-10-25T23:53:18.398Z,93.69
2022-10-25T23:55:36.685Z,94.58
2022-10-25T23:57:53.989Z,94.77
